PASY METAR and TAF weather

Enter ICAO airport designator
Station Type Date Time Source
PASY METAR 2019/10/23 01:55 UTC NOAA

PASY 230155Z 31011KT 20SM FEW030 BKN037 BKN048 BKN060 04/M00 A3002 RMK AO2A SLP169 RVRNO $


Station Type Date Time Source
PASY Decoded METAR 2019/10/23 01:55 UTC NOAA

SHEMYA EARECKSON AS, AK, United States (PASY) 52-43N 174-07E
Oct 22, 2019 - 09:55 PM EDT / 2019.10.23 0155 UTC
Wind: from the NW (310 degrees) at 13 MPH (11 KT):0
Visibility: 20 mile(s):0
Sky conditions: mostly cloudy
Temperature: 39 F (4 C)
Dew Point: 32 F (0 C)
Relative Humidity: 75%
Pressure (altimeter): 30.02 in. Hg (1016 hPa)
ob: PASY 230155Z 31011KT 20SM FEW030 BKN037 BKN048 BKN060 04/M00 A3002 RMK AO2A SLP169 RVRNO
cycle: 2

Station Type Date Time Source
PASY TAF 2019/10/22 22:10 UTC NOAA

TAF PASY 222200Z 2222/2404 29015KT 9999 SCT030 BKN035 QNH2995INS
BECMG 2308/2309 28009KT 9999 BKN025 QNH3000INS TX05/2303Z TN03/2317Z

Example: see airport list